ATOK1: Verdigris River, Altoona, KS

Data processed at Wed May 22 2019 23:50


All information presented herein is the property of the government of the United States of America and may be revised or deleted at any time without prior notice.
Dissemination of this information without the expressed written consent of the Public Affairs Office, Tulsa District U.S. Army Corps of Engineers is strictly prohibited.
These data are gathered electronically and, as presented, have not undergone any form of quality control. These data are not guaranteed to be valid or correct.
Go to home page.
Go to station list.
Go to home page.

Upstream stations:

Downstream station:
Previous Day
Next Day
Current Day
    
SHEF ID:       ATOK1     VERDIGRIS R NR ALTOONA, KS
STATION TYPE:  
Regulating: Stage =    19.00, Flow =    12698

               PRECIP     STAGE  RIV-FLOW  BAT-LOAD
                   in        ft       cfs      volt
              Ccp-Rev   Ccp-Rev   Ccp-Rev   Ccp-Rev
(US/Central)
05/22 00:00      0.00     20.55     20443     12.95
05/22 01:00      0.00     20.49     20067     12.95
05/22 02:00      0.00     20.51     20192     12.95
05/22 03:00      0.00     20.49     20067     12.89
05/22 04:00      0.00     20.40     19514     12.89
05/22 05:00      0.00     20.36     19272     12.89
05/22 06:00      0.00     20.26     18678     12.83
05/22 07:00      0.00     20.23     18503     12.89
05/22 08:00      0.01     20.09     17703     13.07
05/22 09:00      0.00     20.07     17591     13.48
05/22 10:00      0.00     20.01     17258     13.65
05/22 11:00      0.00     19.93     16835     13.48
05/22 12:00      0.00     19.77     16016     13.48
05/22 13:00      0.00     19.82     16268     13.53
05/22 14:00      0.00     19.69     15619     13.42
05/22 15:00      0.00     19.61     15230     13.36
05/22 16:00      0.00     19.63     15327     13.18
05/22 17:00      0.00     19.46     14523     13.36
05/22 18:00      0.00     19.48     14615     13.36
05/22 19:00      0.00     19.43     14384     13.07
05/22 20:00      0.00     19.35     14021     13.00
05/22 21:00      0.15     19.28     13709     13.00
05/22 22:00      0.00     19.25     13578     12.95
05/22 23:00      0.23     19.22     13447     12.95